Time;durP1;ratioP1;P1;durP2;ratioP2;P2;SDS_P1;SDS_P2;PMS_P1;PMS_P2;Temp;Humidity;BMP_temperature;BMP_pressure;BME280_temperature;BME280_humidity;BME280_pressure;Samples;Min_cycle;Max_cycle;Signal;HPM_P1;HPM_P2
2022/01/27 00:05:33;;;;;;;;;;;;;;;;;;5116489;28;19923;-76
2022/01/27 00:12:59;;;;;;;;;;;;;;;;;;5117701;28;19916;-76
2022/01/27 00:15:31;;;;;;;;;;;;;;;;;;5117249;28;19923;-75
2022/01/27 00:18:00;;;;;;;;;;;;;;;;;;5117223;28;19923;-77
2022/01/27 00:20:26;;;;;;;;;;;;;;;;;;5117198;28;19922;-76
2022/01/27 00:22:53;;;;;;;;;;;;;;;;;;5117629;28;19912;-76
2022/01/27 00:25:18;;;;;;;;;;;;;;;;;;5116950;28;20366;-75
2022/01/27 00:27:44;;;;;;;;;;;;;;;;;;5117131;28;19912;-76
2022/01/27 00:30:10;;;;;;;;;;;;;;;;;;5117466;28;20346;-76
2022/01/27 00:32:35;;;;;;;;;;;;;;;;;;5117056;27;20395;-75
2022/01/27 00:35:02;;;;;;;;;;;;;;;;;;5116984;28;20362;-76
2022/01/27 00:37:27;;;;;;;;;;;;;;;;;;5116948;28;20386;-76
2022/01/27 00:39:53;;;;;;;;;;;;;;;;;;5116780;28;20027;-76
2022/01/27 00:42:18;;;;;;;;;;;;;;;;;;5116795;28;19960;-76
2022/01/27 00:44:43;;;;;;;;;;;;;;;;;;5116857;28;19960;-76
2022/01/27 00:47:09;;;;;;;;;;;;;;;;;;5116700;27;19915;-76
2022/01/27 00:49:37;;;;;;;;;;;;;;;;;;5116702;28;19955;-76
2022/01/27 00:52:03;;;;;;;;;;;;;;;;;;5116692;28;20379;-75
2022/01/27 00:54:29;;;;;;;;;;;;;;;;;;5116601;28;19961;-76
2022/01/27 00:57:05;;;;;;;;;;;;;;;;;;5116588;28;20443;-76
2022/01/27 01:04:43;;;;;;;;;;;;;;;;;;5116935;28;19912;-76
2022/01/27 01:07:10;;;;;;;;;;;;;;;;;;5116142;28;19919;-75
2022/01/27 01:10:32;;;;;;;;;;;;;;;;;;5116272;28;19916;-76
2022/01/27 01:15:12;;;;;;;;;;;;;;;;;;5116387;28;20256;-76
2022/01/27 01:20:47;;;;;;;;;;;;;;;;;;5114983;28;19922;-76
2022/01/27 01:34:13;;;;;;;;;;;;;;;;;;5114593;28;19916;-75
2022/01/27 01:36:47;;;;;;;;;;;;;;;;;;5115873;28;19916;-74
2022/01/27 01:39:13;;;;;;;;;;;;;;;;;;5115471;28;19916;-75
2022/01/27 01:41:39;;;;;;;;;;;;;;;;;;5115942;28;19922;-76
2022/01/27 01:44:05;;;;;;;;;;;;;;;;;;5115504;28;19951;-76
2022/01/27 01:46:30;;;;;;;;;;;;;;;;;;5115649;28;19916;-75
2022/01/27 01:48:56;;;;;;;;;;;;;;;;;;5115529;28;19941;-76
2022/01/27 01:51:25;;;;;;;;;;;;;;;;;;5115437;28;19920;-75
2022/01/27 01:53:51;;;;;;;;;;;;;;;;;;5115429;28;19921;-76
2022/01/27 01:56:17;;;;;;;;;;;;;;;;;;5115519;28;19926;-76
2022/01/27 01:58:42;;;;;;;;;;;;;;;;;;5115324;28;20011;-76
2022/01/27 02:01:07;;;;;;;;;;;;;;;;;;5115347;28;19915;-76
2022/01/27 02:03:33;;;;;;;;;;;;;;;;;;5115299;28;19916;-76
2022/01/27 02:05:59;;;;;;;;;;;;;;;;;;5114971;28;20058;-76
2022/01/27 02:19:12;;;;;;;;;;;;;;;;;;5114838;28;19962;-76
2022/01/27 02:21:54;;;;;;;;;;;;;;;;;;5114995;28;20348;-76
2022/01/27 02:24:21;;;;;;;;;;;;;;;;;;5114976;28;19922;-76
2022/01/27 02:26:50;;;;;;;;;;;;;;;;;;5114972;28;20374;-77
2022/01/27 02:29:16;;;;;;;;;;;;;;;;;;5114756;28;19916;-76
2022/01/27 02:31:41;;;;;;;;;;;;;;;;;;5130598;27;20397;-76
2022/01/27 02:34:07;;;;;;;;;;;;;;;;;;5115001;28;19916;-76
2022/01/27 02:36:33;;;;;;;;;;;;;;;;;;5114783;27;20003;-76
2022/01/27 02:38:59;;;;;;;;;;;;;;;;;;5114696;28;19916;-76
2022/01/27 02:41:26;;;;;;;;;;;;;;;;;;5129343;28;19920;-77
2022/01/27 02:43:51;;;;;;;;;;;;;;;;;;5125168;28;19927;-75
2022/01/27 02:46:21;;;;;;;;;;;;;;;;;;5115136;28;19912;-75
2022/01/27 02:48:46;;;;;;;;;;;;;;;;;;5114941;28;19916;-76
2022/01/27 02:51:12;;;;;;;;;;;;;;;;;;5114409;28;19919;-75
2022/01/27 02:53:37;;;;;;;;;;;;;;;;;;5113215;28;20282;-75
2022/01/27 02:56:03;;;;;;;;;;;;;;;;;;5114103;28;20337;-76
2022/01/27 02:58:28;;;;;;;;;;;;;;;;;;5114262;28;19937;-75
2022/01/27 03:00:54;;;;;;;;;;;;;;;;;;5114667;28;20256;-76
2022/01/27 03:03:19;;;;;;;;;;;;;;;;;;5114322;28;19911;-76
2022/01/27 03:05:44;;;;;;;;;;;;;;;;;;5114173;28;19999;-76
2022/01/27 03:08:10;;;;;;;;;;;;;;;;;;5113997;28;19923;-76
2022/01/27 03:10:39;;;;;;;;;;;;;;;;;;5114241;28;19966;-76
2022/01/27 03:13:05;;;;;;;;;;;;;;;;;;5114114;28;20411;-75
2022/01/27 03:15:30;;;;;;;;;;;;;;;;;;5114010;28;19916;-76
2022/01/27 03:17:55;;;;;;;;;;;;;;;;;;5113579;28;19970;-76
2022/01/27 03:20:21;;;;;;;;;;;;;;;;;;5113934;28;19919;-76
2022/01/27 03:22:46;;;;;;;;;;;;;;;;;;5113534;28;19912;-77
2022/01/27 03:25:12;;;;;;;;;;;;;;;;;;5113920;28;20363;-75
2022/01/27 03:27:44;;;;;;;;;;;;;;;;;;5113896;28;19918;-75
2022/01/27 03:30:10;;;;;;;;;;;;;;;;;;5114025;28;19922;-76
2022/01/27 03:32:35;;;;;;;;;;;;;;;;;;5113816;28;19919;-75
2022/01/27 03:35:01;;;;;;;;;;;;;;;;;;5113892;28;19997;-75
2022/01/27 03:37:26;;;;;;;;;;;;;;;;;;5113724;28;19978;-76
2022/01/27 03:39:52;;;;;;;;;;;;;;;;;;5113821;28;19916;-76
2022/01/27 03:42:17;;;;;;;;;;;;;;;;;;5112500;28;19915;-76
2022/01/27 03:44:42;;;;;;;;;;;;;;;;;;5112597;28;19920;-76
2022/01/27 03:47:08;;;;;;;;;;;;;;;;;;5113761;28;20291;-75
2022/01/27 03:49:34;;;;;;;;;;;;;;;;;;5113676;28;20371;-76
2022/01/27 03:52:01;;;;;;;;;;;;;;;;;;5113648;28;19923;-76
2022/01/27 03:54:27;;;;;;;;;;;;;;;;;;5113540;28;19916;-76
2022/01/27 03:56:52;;;;;;;;;;;;;;;;;;5113694;28;20269;-75
2022/01/27 03:59:18;;;;;;;;;;;;;;;;;;5113414;28;19916;-76
2022/01/27 04:01:43;;;;;;;;;;;;;;;;;;5113613;28;19923;-76
2022/01/27 04:04:09;;;;;;;;;;;;;;;;;;5113588;28;19919;-75
2022/01/27 04:06:38;;;;;;;;;;;;;;;;;;5113355;28;20375;-76
2022/01/27 04:09:05;;;;;;;;;;;;;;;;;;5113580;28;19941;-76
2022/01/27 04:11:30;;;;;;;;;;;;;;;;;;5113555;28;19915;-76
2022/01/27 04:13:56;;;;;;;;;;;;;;;;;;5113526;28;19973;-77
2022/01/27 04:16:21;;;;;;;;;;;;;;;;;;5113325;28;20006;-77
2022/01/27 04:18:47;;;;;;;;;;;;;;;;;;5113682;28;19916;-76
2022/01/27 04:21:13;;;;;;;;;;;;;;;;;;5113443;28;20363;-77
2022/01/27 04:23:38;;;;;;;;;;;;;;;;;;5113469;28;19915;-76
2022/01/27 04:26:05;;;;;;;;;;;;;;;;;;5113369;28;19972;-75
2022/01/27 04:28:33;;;;;;;;;;;;;;;;;;5113212;28;19995;-76
2022/01/27 04:31:01;;;;;;;;;;;;;;;;;;5113330;28;19918;-76
2022/01/27 04:33:30;;;;;;;;;;;;;;;;;;5114292;28;20290;-76
2022/01/27 04:35:57;;;;;;;;;;;;;;;;;;5116924;28;20489;-76
2022/01/27 04:38:27;;;;;;;;;;;;;;;;;;5116984;28;19915;-75
2022/01/27 04:48:47;;;;;;;;;;;;;;;;;;5116776;28;20448;-76
2022/01/27 04:51:15;;;;;;;;;;;;;;;;;;5116719;28;19920;-75
2022/01/27 04:53:48;;;;;;;;;;;;;;;;;;5116941;28;19923;-76
2022/01/27 04:56:15;;;;;;;;;;;;;;;;;;5116585;28;19961;-76
2022/01/27 04:58:43;;;;;;;;;;;;;;;;;;5116380;28;19923;-76
2022/01/27 05:01:09;;;;;;;;;;;;;;;;;;5116330;28;19916;-75
2022/01/27 05:03:41;;;;;;;;;;;;;;;;;;5116342;28;20015;-76
2022/01/27 05:06:06;;;;;;;;;;;;;;;;;;5116220;28;19916;-76
2022/01/27 05:08:32;;;;;;;;;;;;;;;;;;5116341;28;19916;-76
2022/01/27 05:11:03;;;;;;;;;;;;;;;;;;5116596;28;19915;-76
2022/01/27 05:13:36;;;;;;;;;;;;;;;;;;5116581;28;19916;-75
2022/01/27 05:16:02;;;;;;;;;;;;;;;;;;5116127;28;19931;-76
2022/01/27 05:18:27;;;;;;;;;;;;;;;;;;5116142;28;20007;-76
2022/01/27 05:20:53;;;;;;;;;;;;;;;;;;5115968;28;19958;-76
2022/01/27 05:23:18;;;;;;;;;;;;;;;;;;5114813;28;20010;-76
2022/01/27 05:25:44;;;;;;;;;;;;;;;;;;5115863;28;20354;-76
2022/01/27 05:28:09;;;;;;;;;;;;;;;;;;5115183;28;20396;-76
2022/01/27 05:30:35;;;;;;;;;;;;;;;;;;5110255;28;20077;-76
2022/01/27 05:33:00;;;;;;;;;;;;;;;;;;5112613;28;20379;-76
2022/01/27 05:35:26;;;;;;;;;;;;;;;;;;5114289;28;19922;-76
2022/01/27 05:37:51;;;;;;;;;;;;;;;;;;5111985;28;20395;-76
2022/01/27 05:40:16;;;;;;;;;;;;;;;;;;5112156;28;19920;-76
2022/01/27 05:42:42;;;;;;;;;;;;;;;;;;5110910;28;19967;-76
2022/01/27 05:45:07;;;;;;;;;;;;;;;;;;5110830;28;19930;-76
2022/01/27 05:47:33;;;;;;;;;;;;;;;;;;5113484;28;19946;-75
2022/01/27 05:49:58;;;;;;;;;;;;;;;;;;5115417;28;19912;-75
2022/01/27 05:52:24;;;;;;;;;;;;;;;;;;5111820;28;19923;-76
2022/01/27 05:54:49;;;;;;;;;;;;;;;;;;5114097;28;20022;-76
2022/01/27 05:57:15;;;;;;;;;;;;;;;;;;5112925;28;20337;-75
2022/01/27 05:59:40;;;;;;;;;;;;;;;;;;5115275;28;20397;-76
2022/01/27 06:02:06;;;;;;;;;;;;;;;;;;5115498;28;19915;-76
2022/01/27 06:04:31;;;;;;;;;;;;;;;;;;5115550;27;19977;-75
2022/01/27 06:06:57;;;;;;;;;;;;;;;;;;5114852;28;19927;-76
2022/01/27 06:09:22;;;;;;;;;;;;;;;;;;5115446;28;20374;-76
2022/01/27 06:11:47;;;;;;;;;;;;;;;;;;5115121;28;19916;-75
2022/01/27 06:14:13;;;;;;;;;;;;;;;;;;5103827;28;20621;-76
2022/01/27 06:16:38;;;;;;;;;;;;;;;;;;5100401;28;19920;-76
2022/01/27 06:19:06;;;;;;;;;;;;;;;;;;5098516;28;19920;-75
2022/01/27 06:21:34;;;;;;;;;;;;;;;;;;5097456;28;19932;-75
2022/01/27 06:24:00;;;;;;;;;;;;;;;;;;5098750;28;19926;-76
2022/01/27 06:26:27;;;;;;;;;;;;;;;;;;5099610;28;19924;-77
2022/01/27 06:28:53;;;;;;;;;;;;;;;;;;5101199;28;19932;-76
2022/01/27 06:31:19;;;;;;;;;;;;;;;;;;5100301;28;20256;-75
2022/01/27 06:33:44;;;;;;;;;;;;;;;;;;5103643;28;19991;-76
2022/01/27 06:36:09;;;;;;;;;;;;;;;;;;5111739;28;19924;-76
2022/01/27 06:38:35;;;;;;;;;;;;;;;;;;5106716;27;19920;-74
2022/01/27 06:41:00;;;;;;;;;;;;;;;;;;5099534;27;19942;-75
2022/01/27 06:43:26;;;;;;;;;;;;;;;;;;5108763;28;19920;-75
2022/01/27 06:45:51;;;;;;;;;;;;;;;;;;5109706;28;19930;-74
2022/01/27 06:48:16;;;;;;;;;;;;;;;;;;5108809;28;19923;-74
2022/01/27 06:50:42;;;;;;;;;;;;;;;;;;5110063;28;20297;-74
2022/01/27 06:53:08;;;;;;;;;;;;;;;;;;5105916;28;20054;-75
2022/01/27 06:55:34;;;;;;;;;;;;;;;;;;5099426;28;20378;-74
2022/01/27 06:57:59;;;;;;;;;;;;;;;;;;5097687;28;19978;-75
2022/01/27 07:00:25;;;;;;;;;;;;;;;;;;5108991;28;19920;-75
2022/01/27 07:02:50;;;;;;;;;;;;;;;;;;5119756;27;19920;-75
2022/01/27 07:05:17;;;;;;;;;;;;;;;;;;5106598;28;19920;-77
2022/01/27 07:07:43;;;;;;;;;;;;;;;;;;5100473;28;19920;-75
2022/01/27 07:10:09;;;;;;;;;;;;;;;;;;5097657;28;20425;-76
2022/01/27 07:12:34;;;;;;;;;;;;;;;;;;5097951;28;19919;-77
2022/01/27 07:14:59;;;;;;;;;;;;;;;;;;5098830;28;19926;-76
2022/01/27 07:17:25;;;;;;;;;;;;;;;;;;5107406;28;19916;-76
2022/01/27 07:19:50;;;;;;;;;;;;;;;;;;5098988;28;19924;-76
2022/01/27 07:22:16;;;;;;;;;;;;;;;;;;5098800;28;19924;-77
2022/01/27 07:24:41;;;;;;;;;;;;;;;;;;5097895;28;20539;-76
2022/01/27 07:27:07;;;;;;;;;;;;;;;;;;5107186;28;19923;-76
2022/01/27 07:29:34;;;;;;;;;;;;;;;;;;5096045;28;20317;-77
2022/01/27 07:31:59;;;;;;;;;;;;;;;;;;5100076;28;19920;-75
2022/01/27 07:34:25;;;;;;;;;;;;;;;;;;5099047;28;20014;-76
2022/01/27 07:36:55;;;;;;;;;;;;;;;;;;5098273;28;19930;-76
2022/01/27 07:39:20;;;;;;;;;;;;;;;;;;5099663;28;19924;-76
2022/01/27 07:41:45;;;;;;;;;;;;;;;;;;5099191;28;19974;-75
2022/01/27 07:44:11;;;;;;;;;;;;;;;;;;5096670;28;19927;-77
2022/01/27 07:46:36;;;;;;;;;;;;;;;;;;5100620;28;19935;-75
2022/01/27 07:49:02;;;;;;;;;;;;;;;;;;5099901;28;19976;-77
2022/01/27 07:51:27;;;;;;;;;;;;;;;;;;5100276;28;19943;-78
2022/01/27 07:53:53;;;;;;;;;;;;;;;;;;5112152;28;19916;-75
2022/01/27 07:56:18;;;;;;;;;;;;;;;;;;5097865;28;19916;-76
2022/01/27 07:58:44;;;;;;;;;;;;;;;;;;5096699;28;19931;-76
2022/01/27 08:01:09;;;;;;;;;;;;;;;;;;5100997;28;19920;-76
2022/01/27 08:03:36;;;;;;;;;;;;;;;;;;5101433;28;19923;-76
2022/01/27 08:06:02;;;;;;;;;;;;;;;;;;5096306;28;19977;-75
2022/01/27 08:08:27;;;;;;;;;;;;;;;;;;5111395;28;19924;-76
2022/01/27 08:10:52;;;;;;;;;;;;;;;;;;5112344;28;19920;-76
2022/01/27 08:13:18;;;;;;;;;;;;;;;;;;5111964;27;20366;-76
2022/01/27 08:15:44;;;;;;;;;;;;;;;;;;5111288;28;19934;-76
2022/01/27 08:18:09;;;;;;;;;;;;;;;;;;5111485;28;20370;-76
2022/01/27 08:20:37;;;;;;;;;;;;;;;;;;5104934;28;19923;-76
2022/01/27 08:23:03;;;;;;;;;;;;;;;;;;5100584;28;19924;-76
2022/01/27 08:25:29;;;;;;;;;;;;;;;;;;5106259;28;19919;-76
2022/01/27 08:27:57;;;;;;;;;;;;;;;;;;5105768;28;19919;-77
2022/01/27 08:30:27;;;;;;;;;;;;;;;;;;5103106;28;19924;-76
2022/01/27 08:33:04;;;;;;;;;;;;;;;;;;5102138;28;20002;-76
2022/01/27 08:35:30;;;;;;;;;;;;;;;;;;5105888;28;19920;-75
2022/01/27 08:37:55;;;;;;;;;;;;;;;;;;5102928;28;19920;-74
2022/01/27 08:40:21;;;;;;;;;;;;;;;;;;5100740;28;20291;-75
2022/01/27 08:42:47;;;;;;;;;;;;;;;;;;5102881;27;20359;-76
2022/01/27 08:45:15;;;;;;;;;;;;;;;;;;5100663;28;19920;-75
2022/01/27 08:47:40;;;;;;;;;;;;;;;;;;5102360;28;19920;-76
2022/01/27 08:50:07;;;;;;;;;;;;;;;;;;5102675;28;19924;-76
2022/01/27 08:52:33;;;;;;;;;;;;;;;;;;5100088;28;20718;-76
2022/01/27 08:54:59;;;;;;;;;;;;;;;;;;5103593;28;19927;-76
2022/01/27 08:57:24;;;;;;;;;;;;;;;;;;5108234;27;19923;-76
2022/01/27 08:59:51;;;;;;;;;;;;;;;;;;5116298;28;19916;-75
2022/01/27 09:02:17;;;;;;;;;;;;;;;;;;5116562;28;20355;-76
2022/01/27 09:04:42;;;;;;;;;;;;;;;;;;5116569;28;19942;-76
2022/01/27 09:07:08;;;;;;;;;;;;;;;;;;5116098;28;19959;-76
2022/01/27 09:09:33;;;;;;;;;;;;;;;;;;5116633;28;20330;-76
2022/01/27 09:12:00;;;;;;;;;;;;;;;;;;5116286;28;19916;-76
2022/01/27 09:14:30;;;;;;;;;;;;;;;;;;5116127;28;19916;-77
2022/01/27 09:16:57;;;;;;;;;;;;;;;;;;5116046;28;19923;-75
2022/01/27 09:19:25;;;;;;;;;;;;;;;;;;5115170;28;19973;-76
2022/01/27 09:21:52;;;;;;;;;;;;;;;;;;5116134;28;19916;-75
2022/01/27 09:24:25;;;;;;;;;;;;;;;;;;5116218;28;20006;-77
2022/01/27 09:26:53;;;;;;;;;;;;;;;;;;5097916;27;19916;-76
2022/01/27 09:29:19;;;;;;;;;;;;;;;;;;5098223;27;20287;-75
2022/01/27 09:31:46;;;;;;;;;;;;;;;;;;5095584;28;19955;-76
2022/01/27 09:34:12;;;;;;;;;;;;;;;;;;5095498;28;19966;-78
2022/01/27 09:36:37;;;;;;;;;;;;;;;;;;5095377;28;19919;-78
2022/01/27 09:39:03;;;;;;;;;;;;;;;;;;5101083;27;19924;-75
2022/01/27 09:41:30;;;;;;;;;;;;;;;;;;5099500;28;19920;-77
2022/01/27 09:43:57;;;;;;;;;;;;;;;;;;5099998;28;19969;-75
2022/01/27 09:46:24;;;;;;;;;;;;;;;;;;5100330;27;20381;-77
2022/01/27 09:48:51;;;;;;;;;;;;;;;;;;5102285;27;20003;-74
2022/01/27 09:53:45;;;;;;;;;;;;;;;;;;5104428;28;20003;-76
2022/01/27 09:56:11;;;;;;;;;;;;;;;;;;5106861;27;20279;-77
2022/01/27 09:58:36;;;;;;;;;;;;;;;;;;5101757;28;19920;-76
2022/01/27 10:01:02;;;;;;;;;;;;;;;;;;5099838;28;19927;-77
2022/01/27 10:03:28;;;;;;;;;;;;;;;;;;5101180;27;19927;-75
2022/01/27 10:06:08;;;;;;;;;;;;;;;;;;5114106;27;20009;-77
2022/01/27 10:08:34;;;;;;;;;;;;;;;;;;5103991;28;20013;-76
2022/01/27 10:11:11;;;;;;;;;;;;;;;;;;5111437;27;19939;-76
2022/01/27 10:13:40;;;;;;;;;;;;;;;;;;5127151;27;19915;-77
2022/01/27 10:16:09;;;;;;;;;;;;;;;;;;5114174;28;19986;-76
2022/01/27 10:18:44;;;;;;;;;;;;;;;;;;5107611;28;19923;-76
2022/01/27 10:21:12;;;;;;;;;;;;;;;;;;5107702;28;20427;-77
2022/01/27 10:23:39;;;;;;;;;;;;;;;;;;5111902;28;19916;-76
2022/01/27 10:26:13;;;;;;;;;;;;;;;;;;5114173;28;20749;-76
2022/01/27 10:29:08;;;;;;;;;;;;;;;;;;5113309;28;19957;-76
2022/01/27 10:31:38;;;;;;;;;;;;;;;;;;5115516;28;19926;-76
2022/01/27 10:34:05;;;;;;;;;;;;;;;;;;5118853;28;19924;-76
2022/01/27 10:36:40;;;;;;;;;;;;;;;;;;5120296;28;19973;-76
2022/01/27 10:39:08;;;;;;;;;;;;;;;;;;5103356;28;19920;-76
2022/01/27 10:41:35;;;;;;;;;;;;;;;;;;5107385;28;19926;-75
2022/01/27 10:44:12;;;;;;;;;;;;;;;;;;5112180;28;19916;-76
2022/01/27 10:46:49;;;;;;;;;;;;;;;;;;5112659;28;20402;-75
2022/01/27 10:49:27;;;;;;;;;;;;;;;;;;5113071;28;20408;-75
2022/01/27 10:51:55;;;;;;;;;;;;;;;;;;5106540;28;19946;-77
2022/01/27 10:54:36;;;;;;;;;;;;;;;;;;5112832;28;20406;-77
2022/01/27 10:57:03;;;;;;;;;;;;;;;;;;5113195;28;19919;-76
2022/01/27 10:59:32;;;;;;;;;;;;;;;;;;5113851;28;20371;-76
2022/01/27 11:01:58;;;;;;;;;;;;;;;;;;5101399;28;19981;-77
2022/01/27 11:04:31;;;;;;;;;;;;;;;;;;5102532;28;20374;-76
2022/01/27 11:06:59;;;;;;;;;;;;;;;;;;5105023;28;19942;-77
2022/01/27 11:09:27;;;;;;;;;;;;;;;;;;5101257;28;20454;-77
2022/01/27 11:11:55;;;;;;;;;;;;;;;;;;5099123;28;20014;-76
2022/01/27 11:14:23;;;;;;;;;;;;;;;;;;5099710;28;20416;-76
2022/01/27 11:16:51;;;;;;;;;;;;;;;;;;5117429;27;19919;-75
2022/01/27 11:21:45;;;;;;;;;;;;;;;;;;5100826;28;20144;-76
2022/01/27 11:24:29;;;;;;;;;;;;;;;;;;5099540;28;19920;-77
2022/01/27 11:26:56;;;;;;;;;;;;;;;;;;5123632;27;19930;-76
2022/01/27 11:29:23;;;;;;;;;;;;;;;;;;5109063;28;20394;-76
2022/01/27 11:31:57;;;;;;;;;;;;;;;;;;5113300;28;19919;-76
2022/01/27 11:34:23;;;;;;;;;;;;;;;;;;5113603;28;19920;-75
2022/01/27 11:37:06;;;;;;;;;;;;;;;;;;5113742;28;20006;-77
2022/01/27 11:39:46;;;;;;;;;;;;;;;;;;5113810;28;20015;-76
2022/01/27 11:42:12;;;;;;;;;;;;;;;;;;5114446;28;20011;-74
2022/01/27 11:44:39;;;;;;;;;;;;;;;;;;5117807;28;20004;-73
2022/01/27 11:47:07;;;;;;;;;;;;;;;;;;5116727;28;19955;-74
2022/01/27 11:49:56;;;;;;;;;;;;;;;;;;5117960;28;19923;-77
2022/01/27 11:52:29;;;;;;;;;;;;;;;;;;5116442;27;19919;-75
2022/01/27 11:54:55;;;;;;;;;;;;;;;;;;5118161;28;20290;-76
2022/01/27 11:57:40;;;;;;;;;;;;;;;;;;5117909;28;19923;-74
2022/01/27 12:00:09;;;;;;;;;;;;;;;;;;5117594;28;19920;-76
2022/01/27 12:02:55;;;;;;;;;;;;;;;;;;5117708;28;19915;-75
2022/01/27 12:05:20;;;;;;;;;;;;;;;;;;5100080;28;19916;-75
2022/01/27 12:08:04;;;;;;;;;;;;;;;;;;5117375;28;20006;-76
2022/01/27 12:10:40;;;;;;;;;;;;;;;;;;5112745;28;19920;-77
2022/01/27 12:13:29;;;;;;;;;;;;;;;;;;5127270;27;19920;-74
2022/01/27 12:18:38;;;;;;;;;;;;;;;;;;5102390;28;19924;-75
2022/01/27 12:21:23;;;;;;;;;;;;;;;;;;5128187;27;20079;-75
2022/01/27 12:24:24;;;;;;;;;;;;;;;;;;5109524;28;20007;-76
2022/01/27 12:26:52;;;;;;;;;;;;;;;;;;5030885;28;20385;-76
2022/01/27 12:29:22;;;;;;;;;;;;;;;;;;5029035;28;19968;-75
2022/01/27 12:31:48;;;;;;;;;;;;;;;;;;5030350;28;19917;-76
2022/01/27 12:34:13;;;;;;;;;;;;;;;;;;5027393;28;19992;-76
2022/01/27 12:36:39;;;;;;;;;;;;;;;;;;5026447;28;20012;-76
2022/01/27 12:39:05;;;;;;;;;;;;;;;;;;5024830;28;19925;-75
2022/01/27 12:41:37;;;;;;;;;;;;;;;;;;5031284;28;19921;-75
2022/01/27 12:44:09;;;;;;;;;;;;;;;;;;5031421;28;19921;-74
2022/01/27 12:46:35;;;;;;;;;;;;;;;;;;5026366;28;20448;-74
2022/01/27 12:49:02;;;;;;;;;;;;;;;;;;5028938;28;19929;-75
2022/01/27 12:51:27;;;;;;;;;;;;;;;;;;5028344;28;19929;-76
2022/01/27 12:53:59;;;;;;;;;;;;;;;;;;5025064;28;20470;-76
2022/01/27 12:56:25;;;;;;;;;;;;;;;;;;5030023;28;20424;-75
2022/01/27 12:58:50;;;;;;;;;;;;;;;;;;5030618;28;19959;-75
2022/01/27 13:01:16;;;;;;;;;;;;;;;;;;5083911;28;19924;-75
2022/01/27 13:03:58;;;;;;;;;;;;;;;;;;5111559;28;19931;-76
2022/01/27 13:06:30;;;;;;;;;;;;;;;;;;5114543;28;20371;-75
2022/01/27 13:09:14;;;;;;;;;;;;;;;;;;5109599;28;19920;-73
2022/01/27 13:11:40;;;;;;;;;;;;;;;;;;5107222;28;19916;-76
2022/01/27 13:14:06;;;;;;;;;;;;;;;;;;5108113;28;19928;-75
2022/01/27 13:16:42;;;;;;;;;;;;;;;;;;5110766;28;19923;-75
2022/01/27 13:19:20;;;;;;;;;;;;;;;;;;5105376;28;19923;-75
2022/01/27 13:21:51;;;;;;;;;;;;;;;;;;5100349;28;19924;-75
2022/01/27 13:24:19;;;;;;;;;;;;;;;;;;5103413;28;19920;-75
2022/01/27 13:26:46;;;;;;;;;;;;;;;;;;5109406;28;19923;-76
2022/01/27 13:29:12;;;;;;;;;;;;;;;;;;5113388;27;20295;-76
2022/01/27 13:31:38;;;;;;;;;;;;;;;;;;5105604;28;19931;-77
2022/01/27 13:34:04;;;;;;;;;;;;;;;;;;5110521;28;20374;-76
2022/01/27 13:36:34;;;;;;;;;;;;;;;;;;5114781;28;20010;-75
2022/01/27 13:41:34;;;;;;;;;;;;;;;;;;5115692;28;19916;-75
2022/01/27 13:44:05;;;;;;;;;;;;;;;;;;5115589;28;19966;-76
2022/01/27 13:46:38;;;;;;;;;;;;;;;;;;5115681;28;20379;-76
2022/01/27 13:49:25;;;;;;;;;;;;;;;;;;5115552;28;20278;-76
2022/01/27 13:52:15;;;;;;;;;;;;;;;;;;5114586;28;20333;-75
2022/01/27 13:54:47;;;;;;;;;;;;;;;;;;5111167;28;19922;-77
2022/01/27 13:57:19;;;;;;;;;;;;;;;;;;5107480;28;20333;-77
2022/01/27 14:00:00;;;;;;;;;;;;;;;;;;5111143;28;20321;-75
2022/01/27 14:02:29;;;;;;;;;;;;;;;;;;5113331;28;20315;-77
2022/01/27 14:04:59;;;;;;;;;;;;;;;;;;5107627;28;20057;-75
2022/01/27 14:07:32;;;;;;;;;;;;;;;;;;5114157;28;19927;-77
2022/01/27 14:10:07;;;;;;;;;;;;;;;;;;5115148;28;19916;-76
2022/01/27 14:12:44;;;;;;;;;;;;;;;;;;5109144;28;20402;-76
2022/01/27 14:15:25;;;;;;;;;;;;;;;;;;5112124;28;20027;-78
2022/01/27 14:17:55;;;;;;;;;;;;;;;;;;5112334;28;19971;-78
2022/01/27 14:20:21;;;;;;;;;;;;;;;;;;5109070;28;19966;-78
2022/01/27 14:23:00;;;;;;;;;;;;;;;;;;5110358;28;20386;-77
2022/01/27 14:25:35;;;;;;;;;;;;;;;;;;5112218;28;20405;-76
2022/01/27 14:28:00;;;;;;;;;;;;;;;;;;5108161;28;19924;-78
2022/01/27 14:30:26;;;;;;;;;;;;;;;;;;5109374;28;19927;-76
2022/01/27 14:32:51;;;;;;;;;;;;;;;;;;5106639;28;19939;-76
2022/01/27 14:35:17;;;;;;;;;;;;;;;;;;5104385;28;19920;-76
2022/01/27 14:37:43;;;;;;;;;;;;;;;;;;5110570;28;19947;-76
2022/01/27 14:40:15;;;;;;;;;;;;;;;;;;5106630;28;19970;-77
2022/01/27 14:42:41;;;;;;;;;;;;;;;;;;5112860;28;19931;-76
2022/01/27 14:45:08;;;;;;;;;;;;;;;;;;5107785;28;19920;-78
2022/01/27 14:47:40;;;;;;;;;;;;;;;;;;5114457;28;19916;-76
2022/01/27 14:50:06;;;;;;;;;;;;;;;;;;5120772;28;19934;-77
2022/01/27 14:52:31;;;;;;;;;;;;;;;;;;5113342;28;20010;-76
2022/01/27 14:54:58;;;;;;;;;;;;;;;;;;5107722;28;19999;-75
2022/01/27 14:57:23;;;;;;;;;;;;;;;;;;5112176;28;19931;-75
2022/01/27 14:59:48;;;;;;;;;;;;;;;;;;5110735;28;19928;-76
2022/01/27 15:02:14;;;;;;;;;;;;;;;;;;5110479;28;19927;-76
2022/01/27 15:04:39;;;;;;;;;;;;;;;;;;5105842;28;20381;-76
2022/01/27 15:07:05;;;;;;;;;;;;;;;;;;5108715;28;19965;-76
2022/01/27 15:09:31;;;;;;;;;;;;;;;;;;5114172;28;19916;-76
2022/01/27 15:11:57;;;;;;;;;;;;;;;;;;5114125;28;19915;-76
2022/01/27 15:19:50;;;;;;;;;;;;;;;;;;5113932;28;20355;-76
2022/01/27 15:22:16;;;;;;;;;;;;;;;;;;5114163;28;19915;-76
2022/01/27 15:24:43;;;;;;;;;;;;;;;;;;5105243;28;19924;-76
2022/01/27 15:27:09;;;;;;;;;;;;;;;;;;5100790;28;19924;-76
2022/01/27 15:29:35;;;;;;;;;;;;;;;;;;5099400;28;19919;-77
2022/01/27 15:32:03;;;;;;;;;;;;;;;;;;5108322;28;20334;-76
2022/01/27 15:34:28;;;;;;;;;;;;;;;;;;5104730;28;19923;-77
2022/01/27 15:36:54;;;;;;;;;;;;;;;;;;5106840;28;19924;-75
2022/01/27 15:39:19;;;;;;;;;;;;;;;;;;5108123;28;20363;-77
2022/01/27 15:41:48;;;;;;;;;;;;;;;;;;5107914;28;19919;-76
2022/01/27 15:44:13;;;;;;;;;;;;;;;;;;5103361;28;19923;-77
2022/01/27 15:46:39;;;;;;;;;;;;;;;;;;5107599;28;19931;-78
2022/01/27 15:49:04;;;;;;;;;;;;;;;;;;5104453;28;19920;-76
2022/01/27 15:51:31;;;;;;;;;;;;;;;;;;5113887;28;20295;-78
2022/01/27 15:54:02;;;;;;;;;;;;;;;;;;5111007;28;20290;-77
2022/01/27 15:56:28;;;;;;;;;;;;;;;;;;5108382;28;19926;-77
2022/01/27 15:58:54;;;;;;;;;;;;;;;;;;5112641;28;20279;-76
2022/01/27 16:01:20;;;;;;;;;;;;;;;;;;5110474;28;19931;-78
2022/01/27 16:03:46;;;;;;;;;;;;;;;;;;5102325;28;20032;-78
2022/01/27 16:06:11;;;;;;;;;;;;;;;;;;5105928;28;20366;-77
2022/01/27 16:08:37;;;;;;;;;;;;;;;;;;5104916;28;19931;-76
2022/01/27 16:11:02;;;;;;;;;;;;;;;;;;5105437;28;19926;-75
2022/01/27 16:13:28;;;;;;;;;;;;;;;;;;5112829;28;19924;-77
2022/01/27 16:15:53;;;;;;;;;;;;;;;;;;5112764;28;19919;-76
2022/01/27 16:18:19;;;;;;;;;;;;;;;;;;5099772;28;19973;-76
2022/01/27 16:20:46;;;;;;;;;;;;;;;;;;5102209;28;19920;-75
2022/01/27 16:23:12;;;;;;;;;;;;;;;;;;5104419;28;20391;-76
2022/01/27 16:25:37;;;;;;;;;;;;;;;;;;5112213;28;20004;-76
2022/01/27 16:28:03;;;;;;;;;;;;;;;;;;5109170;28;19927;-76
2022/01/27 16:30:28;;;;;;;;;;;;;;;;;;5108613;28;19920;-77
2022/01/27 16:32:54;;;;;;;;;;;;;;;;;;5103833;28;19934;-77
2022/01/27 16:35:19;;;;;;;;;;;;;;;;;;5111430;28;19954;-77
2022/01/27 16:37:49;;;;;;;;;;;;;;;;;;5106003;28;19920;-76
2022/01/27 16:40:15;;;;;;;;;;;;;;;;;;5106271;28;19928;-76
2022/01/27 16:42:41;;;;;;;;;;;;;;;;;;5107632;28;19924;-75
2022/01/27 16:45:06;;;;;;;;;;;;;;;;;;5106155;28;19965;-74
2022/01/27 16:47:32;;;;;;;;;;;;;;;;;;5106564;28;19930;-76
2022/01/27 16:49:58;;;;;;;;;;;;;;;;;;5107847;28;19959;-76
2022/01/27 16:52:24;;;;;;;;;;;;;;;;;;5106386;28;19970;-76
2022/01/27 16:54:50;;;;;;;;;;;;;;;;;;5111999;28;19920;-77
2022/01/27 16:57:15;;;;;;;;;;;;;;;;;;5111443;28;19919;-76
2022/01/27 16:59:41;;;;;;;;;;;;;;;;;;5111208;28;20398;-77
2022/01/27 17:02:06;;;;;;;;;;;;;;;;;;5108059;28;19924;-77
2022/01/27 17:04:32;;;;;;;;;;;;;;;;;;5108318;28;19928;-77
2022/01/27 17:06:57;;;;;;;;;;;;;;;;;;5112017;28;19924;-76
2022/01/27 17:09:23;;;;;;;;;;;;;;;;;;5110475;28;19924;-77
2022/01/27 17:11:48;;;;;;;;;;;;;;;;;;5113651;28;20015;-76
2022/01/27 17:14:15;;;;;;;;;;;;;;;;;;5110249;28;19923;-77
2022/01/27 17:16:41;;;;;;;;;;;;;;;;;;5110618;28;20007;-77
2022/01/27 17:19:08;;;;;;;;;;;;;;;;;;5103937;28;20039;-77
2022/01/27 17:21:34;;;;;;;;;;;;;;;;;;5109172;28;20380;-77
2022/01/27 17:23:59;;;;;;;;;;;;;;;;;;5102983;28;20026;-76
2022/01/27 17:26:25;;;;;;;;;;;;;;;;;;5109723;28;20288;-77
2022/01/27 17:28:50;;;;;;;;;;;;;;;;;;5115878;28;19955;-77
2022/01/27 17:31:16;;;;;;;;;;;;;;;;;;5105241;28;19967;-77
2022/01/27 17:33:41;;;;;;;;;;;;;;;;;;5107667;28;19924;-77
2022/01/27 17:36:07;;;;;;;;;;;;;;;;;;5117158;27;19931;-76
2022/01/27 17:38:33;;;;;;;;;;;;;;;;;;5109159;28;19924;-77
2022/01/27 17:41:00;;;;;;;;;;;;;;;;;;5104847;28;19924;-79
2022/01/27 17:43:33;;;;;;;;;;;;;;;;;;5110771;28;19995;-78
2022/01/27 17:45:59;;;;;;;;;;;;;;;;;;5108756;28;19931;-77
2022/01/27 17:48:24;;;;;;;;;;;;;;;;;;5106166;28;19949;-78
2022/01/27 17:50:50;;;;;;;;;;;;;;;;;;5114370;28;19923;-78
2022/01/27 17:53:16;;;;;;;;;;;;;;;;;;5112976;28;19923;-77
2022/01/27 17:55:42;;;;;;;;;;;;;;;;;;5111295;28;20011;-78